»·PEaware :: N4657 KMHV-KRAL

N4657 :: KMHV-KRAL

FLIGHT INFORMATION

Flight Status: Arrived
Operator: Privately registered:
United States
More flights under this callsign
Pilot: Daniel P. (20187)
Aircraft: PILATUS PC-12 EAGLE
(PC12)
More flights by this aircraft type
Origin: KMHV Mojave
United States
Destination: KRAL Riverside Mun
United States
More flights between these airports :: More routes between these airports
Route: +JERID5 JERID V197 PMD ZIGGY7
File this flight plan on PilotEdge
Remarks:
Altitude:
(Current/Filed)
107ft
Speed:
(Current/Filed)
200kts
Departed: 01-Oct-18 12:50 PM
Arrived: 01-Oct-18 01:29 PM
Distance/Time
Traveled:
75nm/0:39
Distance/Time
To Go:
Arrived

Flight Plot

Page will automatically refresh every two minutes.

Flight plan parsing failed; only flown route is shown


Map Options




Map Legend


Flown Route
Filed Route
Departure Airport
Arrival Airport
Navaid (VOR, NDB)
Fix

Horizontal Profiles

Position Reports

Time Latitude Longitude Heading Altitude Ground
Speed
01-Oct-18 11:48 35.057308 -118.164010 88 2772ft 0kts
01-Oct-18 11:49 35.057308 -118.164010 88 2772ft 0kts
01-Oct-18 11:50 35.057308 -118.164010 88 2772ft 0kts
01-Oct-18 11:51 35.057308 -118.164010 88 2772ft 0kts
01-Oct-18 11:52 35.057308 -118.164010 88 2772ft 0kts
01-Oct-18 11:53 35.057308 -118.164010 88 2772ft 0kts
01-Oct-18 11:54 35.057308 -118.164010 88 2772ft 0kts
01-Oct-18 11:55 35.057308 -118.164010 88 2772ft 0kts
01-Oct-18 11:56 35.057308 -118.164010 88 2772ft 0kts
01-Oct-18 11:57 35.057308 -118.164010 88 2772ft 0kts
01-Oct-18 11:58 35.057308 -118.164010 88 2772ft 0kts
01-Oct-18 11:59 35.057308 -118.164010 88 2772ft 0kts
01-Oct-18 12:00 35.057308 -118.164010 88 2772ft 0kts
01-Oct-18 12:01 35.057308 -118.164010 88 2772ft 0kts
01-Oct-18 12:02 35.057308 -118.164010 88 2772ft 0kts
01-Oct-18 12:03 35.057308 -118.164010 88 2772ft 0kts
01-Oct-18 12:04 35.057308 -118.164010 88 2772ft 0kts
01-Oct-18 12:05 35.057308 -118.164010 88 2772ft 0kts
01-Oct-18 12:06 35.057308 -118.164010 88 2772ft 0kts
01-Oct-18 12:07 35.057308 -118.164010 88 2772ft 0kts
01-Oct-18 12:08 35.057308 -118.164010 88 2772ft 0kts
01-Oct-18 12:09 35.057308 -118.164010 88 2772ft 0kts
01-Oct-18 12:10 35.057308 -118.164010 88 2772ft 0kts
01-Oct-18 12:11 35.057308 -118.164010 88 2772ft 0kts
01-Oct-18 12:12 35.057308 -118.164010 88 2772ft 0kts
01-Oct-18 12:13 35.057308 -118.164010 88 2772ft 0kts
01-Oct-18 12:14 35.057308 -118.164010 88 2772ft 0kts
01-Oct-18 12:15 35.057308 -118.164010 88 2772ft 0kts
01-Oct-18 12:16 35.057308 -118.164010 88 2772ft 0kts
01-Oct-18 12:17 35.057308 -118.164010 88 2772ft 0kts
01-Oct-18 12:18 35.057308 -118.164010 88 2772ft 0kts
01-Oct-18 12:19 35.057308 -118.164010 88 2772ft 0kts
01-Oct-18 12:20 35.057308 -118.164010 88 2772ft 0kts
01-Oct-18 12:21 35.057308 -118.164009 88 2772ft 0kts
01-Oct-18 12:22 35.057308 -118.164009 88 2772ft 0kts
01-Oct-18 12:23 35.057308 -118.164009 88 2772ft 0kts
01-Oct-18 12:24 35.057308 -118.164009 88 2772ft 0kts
01-Oct-18 12:25 35.057308 -118.164009 88 2772ft 0kts
01-Oct-18 12:26 35.057308 -118.164009 88 2772ft 0kts
01-Oct-18 12:27 35.057308 -118.164009 88 2772ft 0kts
01-Oct-18 12:28 35.057308 -118.164009 88 2772ft 0kts
01-Oct-18 12:29 35.057308 -118.164009 88 2772ft 0kts
01-Oct-18 12:30 35.057308 -118.164009 88 2772ft 0kts
01-Oct-18 12:31 35.057308 -118.164009 88 2772ft 0kts
01-Oct-18 12:32 35.057308 -118.164009 88 2772ft 0kts
01-Oct-18 12:33 35.057308 -118.164009 88 2772ft 0kts
01-Oct-18 12:34 35.057623 -118.162607 89 2770ft 12kts
01-Oct-18 12:35 35.057606 -118.157317 90 2763ft 17kts
01-Oct-18 12:36 35.057594 -118.151309 90 2749ft 15kts
01-Oct-18 12:37 35.057571 -118.146326 89 2738ft 19kts
01-Oct-18 12:38 35.058072 -118.142632 1 2731ft 6kts
01-Oct-18 12:39 35.058357 -118.142629 0 2731ft 0kts
01-Oct-18 12:40 35.058357 -118.142629 0 2731ft 0kts
01-Oct-18 12:41 35.058357 -118.142629 0 2731ft 0kts
01-Oct-18 12:42 35.058357 -118.142629 0 2731ft 0kts
01-Oct-18 12:43 35.058357 -118.142629 0 2731ft 0kts
01-Oct-18 12:44 35.058357 -118.142629 0 2731ft 0kts
01-Oct-18 12:45 35.058357 -118.142629 0 2731ft 0kts
01-Oct-18 12:46 35.058357 -118.142629 0 2731ft 0kts
01-Oct-18 12:47 35.058357 -118.142629 0 2731ft 0kts
01-Oct-18 12:48 35.058357 -118.142629 0 2731ft 0kts
01-Oct-18 12:49 35.058357 -118.142629 0 2731ft 0kts
01-Oct-18 12:50 35.058357 -118.142629 0 2731ft 0kts
01-Oct-18 12:51 35.058919 -118.142643 358 2732ft 7kts
01-Oct-18 12:52 35.059400 -118.160149 264 3324ft 106kts
01-Oct-18 12:53 35.050605 -118.194361 223 5194ft 134kts
01-Oct-18 12:54 35.019118 -118.228285 221 6700ft 165kts
01-Oct-18 12:55 34.983498 -118.264988 219 8169ft 175kts
01-Oct-18 12:56 34.946414 -118.303009 219 9638ft 178kts
01-Oct-18 12:57 34.908121 -118.342180 218 10958ft 190kts
01-Oct-18 12:58 34.859689 -118.358905 140 11016ft 228kts
01-Oct-18 12:59 34.814505 -118.302025 134 10976ft 238kts
01-Oct-18 13:00 34.769270 -118.242982 134 10978ft 238kts
01-Oct-18 13:01 34.724370 -118.184477 134 10976ft 238kts
01-Oct-18 13:02 34.679334 -118.125801 134 10975ft 239kts
01-Oct-18 13:03 34.633796 -118.066808 134 10975ft 241kts
01-Oct-18 13:04 34.600522 -117.995793 120 10975ft 243kts
01-Oct-18 13:05 34.567853 -117.923999 120 10975ft 244kts
01-Oct-18 13:06 34.535311 -117.852894 120 10974ft 240kts
01-Oct-18 13:07 34.503037 -117.782474 120 10975ft 239kts
01-Oct-18 13:08 34.470712 -117.712104 120 10975ft 239kts
01-Oct-18 13:09 34.438419 -117.641952 120 10974ft 239kts
01-Oct-18 13:10 34.406175 -117.572247 120 10976ft 239kts
01-Oct-18 13:11 34.374294 -117.503316 120 10978ft 239kts
01-Oct-18 13:12 34.342197 -117.434031 120 10969ft 231kts
01-Oct-18 13:13 34.312018 -117.370238 132 10954ft 214kts
01-Oct-18 13:14 34.269449 -117.326551 142 10938ft 209kts
01-Oct-18 13:15 34.229255 -117.286551 142 10199ft 179kts
01-Oct-18 13:16 34.194930 -117.252447 142 9038ft 160kts
01-Oct-18 13:17 34.159669 -117.217938 142 8053ft 177kts
01-Oct-18 13:18 34.124324 -117.183784 142 8006ft 153kts
01-Oct-18 13:19 34.088091 -117.148864 142 7024ft 177kts
01-Oct-18 13:20 34.051772 -117.114290 142 6060ft 157kts
01-Oct-18 13:21 34.012595 -117.094655 181 6028ft 168kts
01-Oct-18 13:22 33.965774 -117.098910 184 6017ft 171kts
01-Oct-18 13:23 33.919937 -117.105261 230 6011ft 166kts
01-Oct-18 13:24 33.916746 -117.161595 235 5264ft 189kts
01-Oct-18 13:25 33.897752 -117.207878 310 4568ft 159kts
01-Oct-18 13:26 33.913519 -117.252055 289 3986ft 155kts
01-Oct-18 13:27 33.924967 -117.303600 284 3056ft 162kts
01-Oct-18 13:28 33.934904 -117.354429 284 2183ft 141kts
01-Oct-18 13:29 33.941589 -117.388735 281 1614ft 102kts
01-Oct-18 13:30 33.947883 -117.421100 281 1083ft 100kts
01-Oct-18 13:31 33.952683 -117.445747 286 776ft 18kts
01-Oct-18 13:32 33.952225 -117.446301 193 772ft 0kts
01-Oct-18 13:33 33.952225 -117.446301 193 772ft 0kts
01-Oct-18 13:34 33.952225 -117.446301 193 772ft 0kts
01-Oct-18 13:35 33.952225 -117.446301 193 772ft 0kts
01-Oct-18 13:36 33.951864 -117.445496 105 774ft 10kts
01-Oct-18 13:37 33.950975 -117.443049 103 784ft 6kts
01-Oct-18 13:38 33.950619 -117.443214 302 781ft 0kts
01-Oct-18 13:39 33.950619 -117.443213 302 781ft 0kts
01-Oct-18 13:40 33.950619 -117.443213 302 781ft 0kts
01-Oct-18 13:41 33.950619 -117.443213 302 781ft 0kts
01-Oct-18 13:42 33.950619 -117.443213 302 781ft 0kts
01-Oct-18 13:43 33.950619 -117.443213 302 781ft 0kts
01-Oct-18 13:44 33.950619 -117.443213 302 781ft 0kts
01-Oct-18 13:45 33.950619 -117.443213 302 781ft 0kts

Navigation Log

Ident Type
Flight plan parsing failed, navigation log unavailable